sensor_id;sensor_type;location;lat;lon;timestamp;pressure;altitude;pressure_sealevel;temperature;humidity
75072;BME280;63651;55.728;38.022;2023-02-03T00:00:49;98779.06;;;13.05;37.80
75072;BME280;63651;55.728;38.022;2023-02-03T00:05:50;98776.22;;;13.00;37.91
75072;BME280;63651;55.728;38.022;2023-02-03T00:10:51;98781.66;;;13.00;37.87
75072;BME280;63651;55.728;38.022;2023-02-03T00:15:53;98770.88;;;13.05;37.80
75072;BME280;63651;55.728;38.022;2023-02-03T00:20:54;98771.91;;;13.16;38.25
75072;BME280;63651;55.728;38.022;2023-02-03T00:25:55;98765.63;;;13.27;38.02
75072;BME280;63651;55.728;38.022;2023-02-03T00:30:56;98759.19;;;13.33;38.42
75072;BME280;63651;55.728;38.022;2023-02-03T00:35:57;98764.50;;;13.40;38.01
75072;BME280;63651;55.728;38.022;2023-02-03T00:40:58;98768.41;;;13.44;37.94
75072;BME280;63651;55.728;38.022;2023-02-03T00:45:59;98776.44;;;13.51;38.04
75072;BME280;63651;55.728;38.022;2023-02-03T00:51:00;98760.66;;;13.53;37.85
75072;BME280;63651;55.728;38.022;2023-02-03T00:56:02;98770.84;;;13.57;37.79
75072;BME280;63651;55.728;38.022;2023-02-03T01:01:03;98773.91;;;13.61;37.55
75072;BME280;63651;55.728;38.022;2023-02-03T01:06:22;98766.66;;;13.66;37.79
75072;BME280;63651;55.728;38.022;2023-02-03T01:11:26;98765.00;;;13.65;37.68
75072;BME280;63651;55.728;38.022;2023-02-03T01:16:29;98763.91;;;13.66;38.12
75072;BME280;63651;55.728;38.022;2023-02-03T01:21:31;98765.09;;;13.70;38.02
75072;BME280;63651;55.728;38.022;2023-02-03T01:26:32;98755.59;;;13.73;37.74
75072;BME280;63651;55.728;38.022;2023-02-03T01:31:36;98750.13;;;13.73;37.91
75072;BME280;63651;55.728;38.022;2023-02-03T01:36:39;98755.09;;;13.76;38.05
75072;BME280;63651;55.728;38.022;2023-02-03T01:41:40;98743.94;;;13.77;37.99
75072;BME280;63651;55.728;38.022;2023-02-03T01:46:46;98748.06;;;13.80;37.92
75072;BME280;63651;55.728;38.022;2023-02-03T01:51:48;98751.16;;;14.00;37.52
75072;BME280;63651;55.728;38.022;2023-02-03T01:56:59;98758.50;;;13.83;37.97
75072;BME280;63651;55.728;38.022;2023-02-03T02:02:03;98752.94;;;13.78;38.04
75072;BME280;63651;55.728;38.022;2023-02-03T02:07:05;98742.13;;;13.83;37.69
75072;BME280;63651;55.728;38.022;2023-02-03T02:12:09;98744.03;;;13.83;37.60
75072;BME280;63651;55.728;38.022;2023-02-03T02:17:24;98737.00;;;13.87;37.45
75072;BME280;63651;55.728;38.022;2023-02-03T02:28:46;98740.63;;;13.92;37.34
75072;BME280;63651;55.728;38.022;2023-02-03T02:39:43;98727.56;;;13.94;37.81
75072;BME280;63651;55.728;38.022;2023-02-03T02:44:50;98719.53;;;13.88;37.10
75072;BME280;63651;55.728;38.022;2023-02-03T02:55:07;98726.97;;;13.92;37.71
75072;BME280;63651;55.728;38.022;2023-02-03T03:00:11;98720.94;;;13.90;37.17
75072;BME280;63651;55.728;38.022;2023-02-03T03:05:12;98718.06;;;13.97;37.10
75072;BME280;63651;55.728;38.022;2023-02-03T03:10:17;98715.31;;;13.97;37.38
75072;BME280;63651;55.728;38.022;2023-02-03T03:15:24;98728.97;;;13.97;37.51
75072;BME280;63651;55.728;38.022;2023-02-03T03:20:27;98723.84;;;14.00;37.51
75072;BME280;63651;55.728;38.022;2023-02-03T03:25:35;98724.44;;;14.02;37.36
75072;BME280;63651;55.728;38.022;2023-02-03T03:30:38;98725.50;;;14.01;37.15
75072;BME280;63651;55.728;38.022;2023-02-03T03:40:51;98738.41;;;14.06;37.38
75072;BME280;63651;55.728;38.022;2023-02-03T03:46:04;98733.78;;;14.06;37.27
75072;BME280;63651;55.728;38.022;2023-02-03T03:51:15;98738.75;;;14.09;37.40
75072;BME280;63651;55.728;38.022;2023-02-03T03:56:40;98731.13;;;14.12;36.98
75072;BME280;63651;55.728;38.022;2023-02-03T04:01:44;98737.66;;;14.10;37.46
75072;BME280;63651;55.728;38.022;2023-02-03T04:06:45;98739.56;;;14.10;37.44
75072;BME280;63651;55.728;38.022;2023-02-03T04:11:46;98735.75;;;14.11;37.31
75072;BME280;63651;55.728;38.022;2023-02-03T04:17:04;98736.59;;;14.12;37.27
75072;BME280;63651;55.728;38.022;2023-02-03T04:22:05;98741.22;;;14.11;37.18
75072;BME280;63651;55.728;38.022;2023-02-03T04:27:06;98743.47;;;14.14;36.92
75072;BME280;63651;55.728;38.022;2023-02-03T04:32:07;98735.84;;;14.16;36.87
75072;BME280;63651;55.728;38.022;2023-02-03T04:37:08;98742.97;;;14.17;36.82
75072;BME280;63651;55.728;38.022;2023-02-03T04:42:09;98734.50;;;14.19;37.28
75072;BME280;63651;55.728;38.022;2023-02-03T04:47:10;98735.34;;;14.19;37.14
75072;BME280;63651;55.728;38.022;2023-02-03T04:52:11;98736.19;;;14.20;37.71
75072;BME280;63651;55.728;38.022;2023-02-03T04:57:12;98732.38;;;14.21;37.40
75072;BME280;63651;55.728;38.022;2023-02-03T05:02:14;98732.69;;;14.24;37.01
75072;BME280;63651;55.728;38.022;2023-02-03T05:07:15;98738.97;;;14.25;37.00
75072;BME280;63651;55.728;38.022;2023-02-03T05:12:16;98735.50;;;15.99;36.31
75072;BME280;63651;55.728;38.022;2023-02-03T05:17:17;98738.78;;;16.65;34.84
75072;BME280;63651;55.728;38.022;2023-02-03T05:22:18;98734.66;;;17.10;34.68
75072;BME280;63651;55.728;38.022;2023-02-03T05:27:19;98735.56;;;17.36;34.32
75072;BME280;63651;55.728;38.022;2023-02-03T05:32:20;98738.66;;;17.59;33.82
75072;BME280;63651;55.728;38.022;2023-02-03T05:37:21;98735.16;;;17.79;33.42
75072;BME280;63651;55.728;38.022;2023-02-03T05:42:22;98737.66;;;18.01;32.93
75072;BME280;63651;55.728;38.022;2023-02-03T05:47:23;98735.72;;;18.12;32.80
75072;BME280;63651;55.728;38.022;2023-02-03T05:52:24;98740.16;;;18.23;32.39
75072;BME280;63651;55.728;38.022;2023-02-03T05:57:25;98742.63;;;18.30;32.13
75072;BME280;63651;55.728;38.022;2023-02-03T06:02:26;98745.09;;;18.41;31.96
75072;BME280;63651;55.728;38.022;2023-02-03T06:07:27;98738.22;;;18.49;31.58
75072;BME280;63651;55.728;38.022;2023-02-03T06:12:28;98740.97;;;18.59;31.38
75072;BME280;63651;55.728;38.022;2023-02-03T06:17:29;98743.16;;;18.67;31.47
75072;BME280;63651;55.728;38.022;2023-02-03T06:22:30;98741.78;;;18.70;31.33
75072;BME280;63651;55.728;38.022;2023-02-03T06:27:31;98748.34;;;17.77;31.47
75072;BME280;63651;55.728;38.022;2023-02-03T06:32:36;98746.53;;;17.31;31.47
75072;BME280;63651;55.728;38.022;2023-02-03T06:37:37;98749.94;;;16.95;31.88
75072;BME280;63651;55.728;38.022;2023-02-03T06:42:38;98749.75;;;16.65;32.50
75072;BME280;63651;55.728;38.022;2023-02-03T06:47:40;98749.28;;;16.41;32.92
75072;BME280;63651;55.728;38.022;2023-02-03T06:52:41;98754.59;;;16.21;33.20
75072;BME280;63651;55.728;38.022;2023-02-03T06:57:44;98751.41;;;16.02;33.69
75072;BME280;63651;55.728;38.022;2023-02-03T07:02:45;98750.75;;;15.90;34.17
75072;BME280;63651;55.728;38.022;2023-02-03T07:07:52;98761.25;;;15.71;34.72
75072;BME280;63651;55.728;38.022;2023-02-03T07:12:53;98752.41;;;16.92;36.30
75072;BME280;63651;55.728;38.022;2023-02-03T07:17:54;98751.03;;;17.62;35.23
75072;BME280;63651;55.728;38.022;2023-02-03T07:22:57;98751.41;;;18.11;35.07
75072;BME280;63651;55.728;38.022;2023-02-03T07:27:58;98756.66;;;18.43;34.60
75072;BME280;63651;55.728;38.022;2023-02-03T07:32:59;98750.03;;;18.54;34.70
75072;BME280;63651;55.728;38.022;2023-02-03T07:38:00;98747.56;;;18.68;34.44
75072;BME280;63651;55.728;38.022;2023-02-03T07:43:01;98746.69;;;17.86;34.09
75072;BME280;63651;55.728;38.022;2023-02-03T07:48:02;98741.66;;;17.53;34.04
75072;BME280;63651;55.728;38.022;2023-02-03T07:53:03;98740.84;;;17.57;35.12
75072;BME280;63651;55.728;38.022;2023-02-03T07:58:04;98748.41;;;18.33;34.54
75072;BME280;63651;55.728;38.022;2023-02-03T08:03:05;98745.66;;;18.48;34.45
75072;BME280;63651;55.728;38.022;2023-02-03T08:08:06;98740.97;;;18.59;34.63
75072;BME280;63651;55.728;38.022;2023-02-03T08:13:07;98740.16;;;18.64;34.39
75072;BME280;63651;55.728;38.022;2023-02-03T08:18:08;98732.72;;;18.13;33.82
75072;BME280;63651;55.728;38.022;2023-02-03T08:23:12;98731.56;;;17.69;34.05
75072;BME280;63651;55.728;38.022;2023-02-03T08:28:13;98736.13;;;17.38;34.80
75072;BME280;63651;55.728;38.022;2023-02-03T08:33:14;98734.94;;;17.13;35.19
75072;BME280;63651;55.728;38.022;2023-02-03T08:38:15;98730.84;;;17.21;34.90
75072;BME280;63651;55.728;38.022;2023-02-03T08:43:17;98732.94;;;16.93;35.58
75072;BME280;63651;55.728;38.022;2023-02-03T08:48:18;98735.84;;;16.82;35.78
75072;BME280;63651;55.728;38.022;2023-02-03T08:53:19;98737.44;;;16.73;35.80
75072;BME280;63651;55.728;38.022;2023-02-03T08:58:20;98734.34;;;16.64;35.77
75072;BME280;63651;55.728;38.022;2023-02-03T09:03:21;98734.28;;;16.54;35.91
75072;BME280;63651;55.728;38.022;2023-02-03T09:08:22;98734.19;;;16.81;35.27
75072;BME280;63651;55.728;38.022;2023-02-03T09:13:23;98737.34;;;16.62;36.07
75072;BME280;63651;55.728;38.022;2023-02-03T09:18:24;98737.84;;;16.54;36.04
75072;BME280;63651;55.728;38.022;2023-02-03T09:23:26;98731.53;;;16.54;36.45
75072;BME280;63651;55.728;38.022;2023-02-03T09:28:27;98730.97;;;16.52;36.22
75072;BME280;63651;55.728;38.022;2023-02-03T09:33:29;98731.75;;;16.47;36.65
75072;BME280;63651;55.728;38.022;2023-02-03T09:38:30;98730.38;;;16.45;36.37
75072;BME280;63651;55.728;38.022;2023-02-03T09:49:12;98717.50;;;16.45;36.19
75072;BME280;63651;55.728;38.022;2023-02-03T09:54:36;98726.31;;;16.52;35.90
75072;BME280;63651;55.728;38.022;2023-02-03T09:59:39;98730.94;;;16.47;35.75
75072;BME280;63651;55.728;38.022;2023-02-03T10:04:58;98726.28;;;16.47;36.18
75072;BME280;63651;55.728;38.022;2023-02-03T10:10:13;98725.16;;;16.43;37.48
75072;BME280;63651;55.728;38.022;2023-02-03T10:15:39;98727.16;;;16.53;37.55
75072;BME280;63651;55.728;38.022;2023-02-03T10:20:45;98720.31;;;16.55;37.92
75072;BME280;63651;55.728;38.022;2023-02-03T10:25:51;98713.72;;;16.56;37.62
75072;BME280;63651;55.728;38.022;2023-02-03T10:30:57;98702.66;;;16.41;39.10
75072;BME280;63651;55.728;38.022;2023-02-03T10:41:07;98710.38;;;16.44;40.47
75072;BME280;63651;55.728;38.022;2023-02-03T10:46:08;98702.69;;;16.46;40.73
75072;BME280;63651;55.728;38.022;2023-02-03T10:51:19;98704.59;;;16.41;41.27
75072;BME280;63651;55.728;38.022;2023-02-03T10:56:24;98694.13;;;16.32;41.91
75072;BME280;63651;55.728;38.022;2023-02-03T11:01:37;98691.00;;;17.08;45.10
75072;BME280;63651;55.728;38.022;2023-02-03T11:06:53;98691.00;;;16.61;41.89
75072;BME280;63651;55.728;38.022;2023-02-03T11:17:08;98696.91;;;16.43;42.68
75072;BME280;63651;55.728;38.022;2023-02-03T11:22:10;98693.38;;;16.47;42.01
75072;BME280;63651;55.728;38.022;2023-02-03T11:27:15;98698.59;;;16.49;41.46
75072;BME280;63651;55.728;38.022;2023-02-03T11:32:39;98696.75;;;16.59;40.81
75072;BME280;63651;55.728;38.022;2023-02-03T11:37:43;98691.25;;;16.54;39.96
75072;BME280;63651;55.728;38.022;2023-02-03T11:48:01;98695.66;;;16.60;38.41
75072;BME280;63651;55.728;38.022;2023-02-03T12:14:55;98688.72;;;16.48;36.38
75072;BME280;63651;55.728;38.022;2023-02-03T12:20:22;98676.09;;;16.42;36.45
75072;BME280;63651;55.728;38.022;2023-02-03T12:31:39;98685.13;;;16.42;36.63
75072;BME280;63651;55.728;38.022;2023-02-03T12:37:20;98688.44;;;16.44;37.13
75072;BME280;63651;55.728;38.022;2023-02-03T12:42:20;98690.13;;;16.50;38.14
75072;BME280;63651;55.728;38.022;2023-02-03T12:47:33;98683.81;;;16.50;38.63
75072;BME280;63651;55.728;38.022;2023-02-03T12:52:41;98679.72;;;16.52;38.64
75072;BME280;63651;55.728;38.022;2023-02-03T12:57:52;98673.09;;;16.48;38.64
75072;BME280;63651;55.728;38.022;2023-02-03T13:08:38;98681.63;;;16.52;37.74
75072;BME280;63651;55.728;38.022;2023-02-03T13:13:48;98683.28;;;16.53;37.40
75072;BME280;63651;55.728;38.022;2023-02-03T13:18:57;98684.63;;;16.50;37.25
75072;BME280;63651;55.728;38.022;2023-02-03T13:24:02;98670.59;;;16.42;37.04
75072;BME280;63651;55.728;38.022;2023-02-03T13:29:34;98677.44;;;16.39;36.21
75072;BME280;63651;55.728;38.022;2023-02-03T13:39:59;98678.50;;;16.75;36.01
75072;BME280;63651;55.728;38.022;2023-02-03T13:50:23;98670.44;;;16.16;36.24
75072;BME280;63651;55.728;38.022;2023-02-03T13:55:33;98674.53;;;16.14;36.40
75072;BME280;63651;55.728;38.022;2023-02-03T14:05:47;98679.63;;;16.00;36.69
75072;BME280;63651;55.728;38.022;2023-02-03T14:16:20;98692.41;;;15.89;36.93
75072;BME280;63651;55.728;38.022;2023-02-03T14:21:26;98680.59;;;15.84;36.54
75072;BME280;63651;55.728;38.022;2023-02-03T14:26:39;98680.28;;;15.80;36.92
75072;BME280;63651;55.728;38.022;2023-02-03T14:32:02;98672.91;;;15.81;36.83
75072;BME280;63651;55.728;38.022;2023-02-03T14:42:27;98690.69;;;15.78;36.38
75072;BME280;63651;55.728;38.022;2023-02-03T14:53:34;98682.47;;;15.78;36.70
75072;BME280;63651;55.728;38.022;2023-02-03T14:58:46;98675.81;;;15.69;36.61
75072;BME280;63651;55.728;38.022;2023-02-03T15:04:19;98681.59;;;15.73;36.72
75072;BME280;63651;55.728;38.022;2023-02-03T15:09:40;98685.25;;;15.83;37.72
75072;BME280;63651;55.728;38.022;2023-02-03T15:14:42;98686.50;;;15.71;38.01
75072;BME280;63651;55.728;38.022;2023-02-03T15:19:43;98678.59;;;15.74;38.51
75072;BME280;63651;55.728;38.022;2023-02-03T15:24:44;98682.94;;;15.70;38.59
75072;BME280;63651;55.728;38.022;2023-02-03T15:29:46;98683.97;;;15.64;38.84
75072;BME280;63651;55.728;38.022;2023-02-03T15:34:48;98683.47;;;15.67;38.56
75072;BME280;63651;55.728;38.022;2023-02-03T15:40:20;98689.25;;;15.71;38.50
75072;BME280;63651;55.728;38.022;2023-02-03T15:45:41;98698.22;;;15.66;38.72
75072;BME280;63651;55.728;38.022;2023-02-03T15:50:50;98694.09;;;15.63;38.52
75072;BME280;63651;55.728;38.022;2023-02-03T15:55:56;98697.66;;;15.64;38.65
75072;BME280;63651;55.728;38.022;2023-02-03T16:01:04;98696.84;;;15.63;38.43
75072;BME280;63651;55.728;38.022;2023-02-03T16:06:18;98694.09;;;15.63;38.55
75072;BME280;63651;55.728;38.022;2023-02-03T16:11:37;98698.19;;;15.61;38.87
75072;BME280;63651;55.728;38.022;2023-02-03T16:16:49;98699.06;;;15.66;38.77
75072;BME280;63651;55.728;38.022;2023-02-03T16:21:54;98697.09;;;15.62;38.87
75072;BME280;63651;55.728;38.022;2023-02-03T16:32:25;98698.19;;;15.61;38.53
75072;BME280;63651;55.728;38.022;2023-02-03T16:37:45;98708.34;;;15.65;38.80
75072;BME280;63651;55.728;38.022;2023-02-03T16:43:09;98713.53;;;15.62;38.99
75072;BME280;63651;55.728;38.022;2023-02-03T16:48:29;98711.44;;;15.74;38.53
75072;BME280;63651;55.728;38.022;2023-02-03T16:53:48;98706.63;;;15.59;39.07
75072;BME280;63651;55.728;38.022;2023-02-03T16:58:49;98707.44;;;15.60;38.74
75072;BME280;63651;55.728;38.022;2023-02-03T17:03:50;98715.44;;;15.61;38.78
75072;BME280;63651;55.728;38.022;2023-02-03T17:08:51;98713.78;;;15.60;38.35
75072;BME280;63651;55.728;38.022;2023-02-03T17:13:53;98712.34;;;15.58;38.29
75072;BME280;63651;55.728;38.022;2023-02-03T17:18:54;98705.97;;;15.52;37.92
75072;BME280;63651;55.728;38.022;2023-02-03T17:23:57;98709.47;;;15.48;37.71
75072;BME280;63651;55.728;38.022;2023-02-03T17:28:58;98713.88;;;15.49;37.99
75072;BME280;63651;55.728;38.022;2023-02-03T17:34:02;98712.75;;;15.45;38.05
75072;BME280;63651;55.728;38.022;2023-02-03T17:39:04;98708.34;;;15.44;37.72
75072;BME280;63651;55.728;38.022;2023-02-03T17:44:05;98720.19;;;15.49;38.05
75072;BME280;63651;55.728;38.022;2023-02-03T17:49:06;98719.09;;;15.50;38.30
75072;BME280;63651;55.728;38.022;2023-02-03T17:54:07;98727.25;;;15.45;38.52
75072;BME280;63651;55.728;38.022;2023-02-03T17:59:08;98731.63;;;15.46;38.29
75072;BME280;63651;55.728;38.022;2023-02-03T18:04:09;98730.28;;;15.49;38.75
75072;BME280;63651;55.728;38.022;2023-02-03T18:09:10;98749.50;;;15.54;38.86
75072;BME280;63651;55.728;38.022;2023-02-03T18:14:14;98740.56;;;15.58;40.05
75072;BME280;63651;55.728;38.022;2023-02-03T18:19:16;98753.81;;;15.66;39.80
75072;BME280;63651;55.728;38.022;2023-02-03T18:24:17;98742.47;;;15.58;40.21
75072;BME280;63651;55.728;38.022;2023-02-03T18:29:22;98742.47;;;15.58;40.11
75072;BME280;63651;55.728;38.022;2023-02-03T18:34:24;98747.94;;;15.58;39.73
75072;BME280;63651;55.728;38.022;2023-02-03T18:39:25;98749.50;;;15.54;39.23
75072;BME280;63651;55.728;38.022;2023-02-03T18:44:26;98745.91;;;15.48;38.63
75072;BME280;63651;55.728;38.022;2023-02-03T18:49:27;98751.81;;;15.40;37.68
75072;BME280;63651;55.728;38.022;2023-02-03T18:54:28;98756.97;;;15.36;37.66
75072;BME280;63651;55.728;38.022;2023-02-03T18:59:29;98762.13;;;15.33;37.61
75072;BME280;63651;55.728;38.022;2023-02-03T19:04:30;98760.44;;;15.27;37.68
75072;BME280;63651;55.728;38.022;2023-02-03T19:09:31;98761.75;;;15.24;37.82
75072;BME280;63651;55.728;38.022;2023-02-03T19:14:34;98760.38;;;15.22;38.35
75072;BME280;63651;55.728;38.022;2023-02-03T19:19:35;98765.25;;;15.20;38.24
75072;BME280;63651;55.728;38.022;2023-02-03T19:24:36;98766.59;;;15.17;38.33
75072;BME280;63651;55.728;38.022;2023-02-03T19:29:37;98771.00;;;15.18;38.41
75072;BME280;63651;55.728;38.022;2023-02-03T19:34:41;98768.50;;;15.17;38.04
75072;BME280;63651;55.728;38.022;2023-02-03T19:39:42;98773.72;;;15.18;38.29
75072;BME280;63651;55.728;38.022;2023-02-03T19:44:44;98775.88;;;15.16;37.99
75072;BME280;63651;55.728;38.022;2023-02-03T19:49:45;98775.81;;;15.11;38.48
75072;BME280;63651;55.728;38.022;2023-02-03T19:54:46;98786.75;;;15.11;38.27
75072;BME280;63651;55.728;38.022;2023-02-03T19:59:47;98783.47;;;15.09;38.24
75072;BME280;63651;55.728;38.022;2023-02-03T20:04:48;98776.25;;;15.03;38.89
75072;BME280;63651;55.728;38.022;2023-02-03T20:09:50;98789.19;;;15.08;38.49
75072;BME280;63651;55.728;38.022;2023-02-03T20:14:51;98800.88;;;15.03;38.79
75072;BME280;63651;55.728;38.022;2023-02-03T20:19:52;98802.78;;;15.02;38.83
75072;BME280;63651;55.728;38.022;2023-02-03T20:24:53;98802.47;;;14.99;38.37
75072;BME280;63651;55.728;38.022;2023-02-03T20:29:54;98813.72;;;15.02;38.49
75072;BME280;63651;55.728;38.022;2023-02-03T20:34:55;98817.28;;;15.03;38.23
75072;BME280;63651;55.728;38.022;2023-02-03T20:39:57;98823.78;;;14.97;39.03
75072;BME280;63651;55.728;38.022;2023-02-03T20:44:58;98829.88;;;15.04;38.50
75072;BME280;63651;55.728;38.022;2023-02-03T20:49:59;98830.31;;;14.96;38.75
75072;BME280;63651;55.728;38.022;2023-02-03T20:55:00;98832.31;;;15.00;38.56
75072;BME280;63651;55.728;38.022;2023-02-03T21:00:15;98833.88;;;14.96;38.95
75072;BME280;63651;55.728;38.022;2023-02-03T21:05:24;98838.03;;;14.99;38.64
75072;BME280;63651;55.728;38.022;2023-02-03T21:10:25;98839.59;;;14.95;38.88
75072;BME280;63651;55.728;38.022;2023-02-03T21:15:28;98836.63;;;14.96;38.30
75072;BME280;63651;55.728;38.022;2023-02-03T21:20:30;98841.50;;;14.94;38.48
75072;BME280;63651;55.728;38.022;2023-02-03T21:25:32;98840.34;;;14.90;38.61
75072;BME280;63651;55.728;38.022;2023-02-03T21:30:33;98849.97;;;14.93;38.89
75072;BME280;63651;55.728;38.022;2023-02-03T21:35:35;98855.50;;;14.98;38.61
75072;BME280;63651;55.728;38.022;2023-02-03T21:40:37;98851.63;;;14.94;38.69
75072;BME280;63651;55.728;38.022;2023-02-03T21:45:41;98859.56;;;14.95;38.50
75072;BME280;63651;55.728;38.022;2023-02-03T21:50:42;98864.47;;;14.93;38.60
75072;BME280;63651;55.728;38.022;2023-02-03T21:55:43;98867.78;;;14.95;38.63
75072;BME280;63651;55.728;38.022;2023-02-03T22:00:44;98865.78;;;14.91;38.24
75072;BME280;63651;55.728;38.022;2023-02-03T22:05:49;98873.16;;;14.90;38.82
75072;BME280;63651;55.728;38.022;2023-02-03T22:10:50;98873.16;;;14.90;39.02
75072;BME280;63651;55.728;38.022;2023-02-03T22:15:51;98866.88;;;14.90;38.37
75072;BME280;63651;55.728;38.022;2023-02-03T22:20:52;98872.16;;;14.96;38.36
75072;BME280;63651;55.728;38.022;2023-02-03T22:25:53;98875.81;;;14.85;38.41
75072;BME280;63651;55.728;38.022;2023-02-03T22:30:54;98882.13;;;14.86;38.87
75072;BME280;63651;55.728;38.022;2023-02-03T22:35:56;98888.09;;;14.83;38.94
75072;BME280;63651;55.728;38.022;2023-02-03T22:40:57;98883.44;;;14.83;38.51
75072;BME280;63651;55.728;38.022;2023-02-03T22:45:58;98884.78;;;14.81;38.69
75072;BME280;63651;55.728;38.022;2023-02-03T22:51:01;98886.59;;;14.75;38.30
75072;BME280;63651;55.728;38.022;2023-02-03T22:56:02;98894.31;;;14.78;38.56
75072;BME280;63651;55.728;38.022;2023-02-03T23:01:04;98896.47;;;14.76;38.78
75072;BME280;63651;55.728;38.022;2023-02-03T23:06:05;98898.94;;;14.78;38.37
75072;BME280;63651;55.728;38.022;2023-02-03T23:11:06;98897.53;;;14.75;38.40
75072;BME280;63651;55.728;38.022;2023-02-03T23:16:07;98895.31;;;14.72;38.85
75072;BME280;63651;55.728;38.022;2023-02-03T23:21:08;98904.91;;;14.75;38.46
75072;BME280;63651;55.728;38.022;2023-02-03T23:26:09;98905.06;;;14.68;38.74
75072;BME280;63651;55.728;38.022;2023-02-03T23:31:10;98905.66;;;14.70;38.47
75072;BME280;63651;55.728;38.022;2023-02-03T23:36:11;98911.69;;;14.72;38.37
75072;BME280;63651;55.728;38.022;2023-02-03T23:41:12;98912.78;;;14.71;38.46
75072;BME280;63651;55.728;38.022;2023-02-03T23:46:13;98904.00;;;14.69;38.52
75072;BME280;63651;55.728;38.022;2023-02-03T23:51:14;98905.56;;;14.65;38.80
75072;BME280;63651;55.728;38.022;2023-02-03T23:56:15;98920.66;;;14.67;38.47
